West Grove, PA

1:57 PM EST on January 26, 2015 (GMT -0500)
APRSWXNET West Grove PA US | Change Station
CLOSE
Current Station
Personal Weather Station
Location: West Grove, PA
Elevation: 487 ft
Nearby Weather Stations
Active Advisory: Winter Weather Advisory Active Notice: Public Information Statement

Elev 487 ft 39.82 °N, 75.83 °W | Updated 32 minutes ago

Snow
Snow
27 °F
Feels Like 21 °F
N
5
Wind Variable Wind from NE
Gusts 14.0 mph

Today
High -- | Low -- °F
--% Chance of Precip.
Yesterday
High -- | Low -- °F
Precip. -- in
7:16 AM 5:15 PM
Waxing Crescent, 45% visible
Pressure 29.75 in
Visibility 7.0 miles
Clouds Few 1100 ft
Scattered Clouds 1900 ft
Mostly Cloudy 6000 ft
Windchill 21 °F
Dew Point 25 °F
Humidity 93%
Rainfall 0.03 in
Snow Depth Not available.
UV 2 out of 12
Pollen .10 out of 12
Air Quality Not available.
Flu Activity Not available.
METAR KMQS 261835Z AUTO 06010G18KT 7SM -SN FEW011 SCT019 BKN060 M03/M05 A2975 RMK AO2

More Conditions Fewer Conditions

Pressure 29.75 in
Visibility 7.0 miles
Clouds Few 1100 ft
Scattered Clouds 1900 ft
Mostly Cloudy 6000 ft
Windchill 21 °F
Dew Point 25 °F
Humidity 93%
Rainfall 0.03 in
Snow Depth Not available.
UV 2 out of 12
Pollen .10 out of 12
Air Quality Not available.
Flu Activity Not available.
METAR KMQS 261835Z AUTO 06010G18KT 7SM -SN FEW011 SCT019 BKN060 M03/M05 A2975 RMK AO2

More Conditions Fewer Conditions

10-Day Weather Forecast

Almanac

Astronomy

Jan. 26, 2015 Rise Set
Actual Time
Civil Twilight
Nautical Twilight
Astronomical Twilight
Moon
Length of Visible Light
Length of Day
Tomorrow will be .
, % of the Moon is Illuminated

Today's Extremes

State Highs State Lows

Community

WunderPhotos

Upload Photos

1,790,312 photos uploaded!

WunderBlogs® & News

Nearby

Air Quality

  Air Quality AQ Index Pollutant
Not available.

Snow Depth

Station Depth Elevation

Earthquake Activity

City Distance Mag. Time & Date
Minimum magnitude displayed is 2.5.

Coastal Water Temperatures

Place Temperature

Nearby Weather Stations